sensor_id;sensor_type;location;lat;lon;timestamp;P1;durP1;ratioP1;P2;durP2;ratioP2
14903;SDS011;7543;53.148;8.234;2023-01-24T00:00:36;15.00;;;7.43;;
14903;SDS011;7543;53.148;8.234;2023-01-24T00:03:04;12.20;;;6.33;;
14903;SDS011;7543;53.148;8.234;2023-01-24T00:05:38;16.13;;;7.23;;
14903;SDS011;7543;53.148;8.234;2023-01-24T00:08:06;15.23;;;7.17;;
14903;SDS011;7543;53.148;8.234;2023-01-24T00:10:35;14.90;;;7.77;;
14903;SDS011;7543;53.148;8.234;2023-01-24T00:13:03;12.33;;;6.23;;
14903;SDS011;7543;53.148;8.234;2023-01-24T00:15:33;13.77;;;6.60;;
14903;SDS011;7543;53.148;8.234;2023-01-24T00:18:01;14.70;;;7.80;;
14903;SDS011;7543;53.148;8.234;2023-01-24T00:20:29;9.73;;;5.80;;
14903;SDS011;7543;53.148;8.234;2023-01-24T00:22:57;13.47;;;7.10;;
14903;SDS011;7543;53.148;8.234;2023-01-24T00:25:25;14.60;;;7.27;;
14903;SDS011;7543;53.148;8.234;2023-01-24T00:27:53;16.60;;;7.97;;
14903;SDS011;7543;53.148;8.234;2023-01-24T00:30:22;14.63;;;7.20;;
14903;SDS011;7543;53.148;8.234;2023-01-24T00:32:51;13.37;;;6.40;;
14903;SDS011;7543;53.148;8.234;2023-01-24T00:35:20;13.63;;;7.33;;
14903;SDS011;7543;53.148;8.234;2023-01-24T00:37:48;11.97;;;6.40;;
14903;SDS011;7543;53.148;8.234;2023-01-24T00:40:16;14.23;;;7.23;;
14903;SDS011;7543;53.148;8.234;2023-01-24T00:42:44;13.43;;;7.13;;
14903;SDS011;7543;53.148;8.234;2023-01-24T00:45:12;14.73;;;7.53;;
14903;SDS011;7543;53.148;8.234;2023-01-24T00:47:41;12.20;;;6.97;;
14903;SDS011;7543;53.148;8.234;2023-01-24T00:50:10;16.03;;;6.93;;
14903;SDS011;7543;53.148;8.234;2023-01-24T00:52:38;13.37;;;7.10;;
14903;SDS011;7543;53.148;8.234;2023-01-24T00:55:07;12.90;;;7.23;;
14903;SDS011;7543;53.148;8.234;2023-01-24T00:57:35;17.83;;;7.73;;
14903;SDS011;7543;53.148;8.234;2023-01-24T01:00:04;10.83;;;6.43;;
14903;SDS011;7543;53.148;8.234;2023-01-24T01:02:34;13.83;;;6.97;;
14903;SDS011;7543;53.148;8.234;2023-01-24T01:05:03;13.50;;;7.67;;
14903;SDS011;7543;53.148;8.234;2023-01-24T01:07:33;11.83;;;6.40;;
14903;SDS011;7543;53.148;8.234;2023-01-24T01:10:01;15.30;;;7.07;;
14903;SDS011;7543;53.148;8.234;2023-01-24T01:12:30;12.67;;;6.87;;
14903;SDS011;7543;53.148;8.234;2023-01-24T01:14:58;13.97;;;6.20;;
14903;SDS011;7543;53.148;8.234;2023-01-24T01:17:26;12.67;;;6.90;;
14903;SDS011;7543;53.148;8.234;2023-01-24T01:19:54;9.97;;;6.33;;
14903;SDS011;7543;53.148;8.234;2023-01-24T01:22:22;14.17;;;6.93;;
14903;SDS011;7543;53.148;8.234;2023-01-24T01:24:52;12.13;;;6.07;;
14903;SDS011;7543;53.148;8.234;2023-01-24T01:27:20;11.60;;;6.27;;
14903;SDS011;7543;53.148;8.234;2023-01-24T01:29:48;15.23;;;6.93;;
14903;SDS011;7543;53.148;8.234;2023-01-24T01:32:17;11.83;;;6.97;;
14903;SDS011;7543;53.148;8.234;2023-01-24T01:34:45;11.83;;;6.60;;
14903;SDS011;7543;53.148;8.234;2023-01-24T01:37:13;14.77;;;6.60;;
14903;SDS011;7543;53.148;8.234;2023-01-24T01:39:41;14.63;;;6.53;;
14903;SDS011;7543;53.148;8.234;2023-01-24T01:42:11;14.20;;;6.90;;
14903;SDS011;7543;53.148;8.234;2023-01-24T01:44:41;14.77;;;7.03;;
14903;SDS011;7543;53.148;8.234;2023-01-24T01:47:15;12.30;;;7.20;;
14903;SDS011;7543;53.148;8.234;2023-01-24T01:49:46;11.70;;;6.57;;
14903;SDS011;7543;53.148;8.234;2023-01-24T01:52:18;11.80;;;6.50;;
14903;SDS011;7543;53.148;8.234;2023-01-24T01:54:47;13.53;;;7.20;;
14903;SDS011;7543;53.148;8.234;2023-01-24T01:57:18;15.63;;;6.30;;
14903;SDS011;7543;53.148;8.234;2023-01-24T01:59:49;12.80;;;6.40;;
14903;SDS011;7543;53.148;8.234;2023-01-24T02:02:20;16.90;;;6.10;;
14903;SDS011;7543;53.148;8.234;2023-01-24T02:04:52;12.70;;;6.57;;
14903;SDS011;7543;53.148;8.234;2023-01-24T02:07:21;13.70;;;7.23;;
14903;SDS011;7543;53.148;8.234;2023-01-24T02:09:52;11.37;;;5.97;;
14903;SDS011;7543;53.148;8.234;2023-01-24T02:12:23;11.63;;;5.60;;
14903;SDS011;7543;53.148;8.234;2023-01-24T02:14:53;12.83;;;6.30;;
14903;SDS011;7543;53.148;8.234;2023-01-24T02:17:40;11.40;;;5.97;;
14903;SDS011;7543;53.148;8.234;2023-01-24T02:20:11;14.90;;;5.80;;
14903;SDS011;7543;53.148;8.234;2023-01-24T02:23:01;11.27;;;5.43;;
14903;SDS011;7543;53.148;8.234;2023-01-24T02:25:40;13.67;;;5.90;;
14903;SDS011;7543;53.148;8.234;2023-01-24T02:28:12;11.50;;;5.87;;
14903;SDS011;7543;53.148;8.234;2023-01-24T02:30:40;12.33;;;5.77;;
14903;SDS011;7543;53.148;8.234;2023-01-24T02:33:09;13.23;;;6.53;;
14903;SDS011;7543;53.148;8.234;2023-01-24T02:35:38;15.80;;;6.73;;
14903;SDS011;7543;53.148;8.234;2023-01-24T02:38:11;12.40;;;5.70;;
14903;SDS011;7543;53.148;8.234;2023-01-24T02:40:42;11.63;;;5.03;;
14903;SDS011;7543;53.148;8.234;2023-01-24T02:43:12;6.97;;;4.07;;
14903;SDS011;7543;53.148;8.234;2023-01-24T02:45:41;9.57;;;4.60;;
14903;SDS011;7543;53.148;8.234;2023-01-24T02:48:10;10.43;;;4.13;;
14903;SDS011;7543;53.148;8.234;2023-01-24T02:50:38;7.93;;;4.77;;
14903;SDS011;7543;53.148;8.234;2023-01-24T02:53:29;8.83;;;4.60;;
14903;SDS011;7543;53.148;8.234;2023-01-24T02:55:58;9.10;;;4.93;;
14903;SDS011;7543;53.148;8.234;2023-01-24T02:58:45;9.87;;;4.83;;
14903;SDS011;7543;53.148;8.234;2023-01-24T03:01:14;8.40;;;5.00;;
14903;SDS011;7543;53.148;8.234;2023-01-24T03:03:46;8.27;;;4.73;;
14903;SDS011;7543;53.148;8.234;2023-01-24T03:06:16;7.70;;;4.73;;
14903;SDS011;7543;53.148;8.234;2023-01-24T03:08:45;8.67;;;4.87;;
14903;SDS011;7543;53.148;8.234;2023-01-24T03:11:21;9.47;;;5.37;;
14903;SDS011;7543;53.148;8.234;2023-01-24T03:13:50;10.00;;;5.13;;
14903;SDS011;7543;53.148;8.234;2023-01-24T03:16:37;9.27;;;4.83;;
14903;SDS011;7543;53.148;8.234;2023-01-24T03:19:23;7.80;;;4.30;;
14903;SDS011;7543;53.148;8.234;2023-01-24T03:22:09;9.17;;;4.80;;
14903;SDS011;7543;53.148;8.234;2023-01-24T03:24:54;7.80;;;4.73;;
14903;SDS011;7543;53.148;8.234;2023-01-24T03:27:40;11.27;;;5.57;;
14903;SDS011;7543;53.148;8.234;2023-01-24T03:34:39;12.57;;;5.73;;
14903;SDS011;7543;53.148;8.234;2023-01-24T03:37:20;8.63;;;4.77;;
14903;SDS011;7543;53.148;8.234;2023-01-24T03:40:04;8.57;;;4.57;;
14903;SDS011;7543;53.148;8.234;2023-01-24T03:42:34;7.77;;;4.23;;
14903;SDS011;7543;53.148;8.234;2023-01-24T03:45:15;11.17;;;5.23;;
14903;SDS011;7543;53.148;8.234;2023-01-24T03:47:46;7.10;;;4.23;;
14903;SDS011;7543;53.148;8.234;2023-01-24T03:50:24;8.87;;;5.20;;
14903;SDS011;7543;53.148;8.234;2023-01-24T03:53:12;7.77;;;4.20;;
14903;SDS011;7543;53.148;8.234;2023-01-24T03:55:42;8.43;;;4.60;;
14903;SDS011;7543;53.148;8.234;2023-01-24T03:58:11;7.43;;;4.10;;
14903;SDS011;7543;53.148;8.234;2023-01-24T04:00:40;6.97;;;3.73;;
14903;SDS011;7543;53.148;8.234;2023-01-24T04:03:24;6.77;;;4.00;;
14903;SDS011;7543;53.148;8.234;2023-01-24T04:05:54;7.40;;;4.30;;
14903;SDS011;7543;53.148;8.234;2023-01-24T04:08:22;8.63;;;4.50;;
14903;SDS011;7543;53.148;8.234;2023-01-24T04:10:50;8.23;;;4.10;;
14903;SDS011;7543;53.148;8.234;2023-01-24T04:13:18;9.80;;;4.47;;
14903;SDS011;7543;53.148;8.234;2023-01-24T04:15:48;7.60;;;4.47;;
14903;SDS011;7543;53.148;8.234;2023-01-24T04:18:33;6.37;;;3.30;;
14903;SDS011;7543;53.148;8.234;2023-01-24T04:21:05;7.47;;;3.97;;
14903;SDS011;7543;53.148;8.234;2023-01-24T04:23:34;8.70;;;4.03;;
14903;SDS011;7543;53.148;8.234;2023-01-24T04:26:06;8.57;;;4.47;;
14903;SDS011;7543;53.148;8.234;2023-01-24T04:28:34;6.07;;;4.00;;
14903;SDS011;7543;53.148;8.234;2023-01-24T04:31:04;7.33;;;3.97;;
14903;SDS011;7543;53.148;8.234;2023-01-24T04:34:06;8.57;;;4.10;;
14903;SDS011;7543;53.148;8.234;2023-01-24T04:36:38;7.00;;;4.17;;
14903;SDS011;7543;53.148;8.234;2023-01-24T04:39:07;7.37;;;4.43;;
14903;SDS011;7543;53.148;8.234;2023-01-24T04:41:45;8.60;;;4.60;;
14903;SDS011;7543;53.148;8.234;2023-01-24T04:44:13;6.40;;;4.03;;
14903;SDS011;7543;53.148;8.234;2023-01-24T04:46:41;6.83;;;4.03;;
14903;SDS011;7543;53.148;8.234;2023-01-24T04:49:11;7.30;;;4.10;;
14903;SDS011;7543;53.148;8.234;2023-01-24T04:51:47;7.17;;;4.30;;
14903;SDS011;7543;53.148;8.234;2023-01-24T04:54:21;8.80;;;5.00;;
14903;SDS011;7543;53.148;8.234;2023-01-24T04:56:50;7.70;;;4.50;;
14903;SDS011;7543;53.148;8.234;2023-01-24T04:59:18;7.43;;;3.97;;
14903;SDS011;7543;53.148;8.234;2023-01-24T05:01:48;8.83;;;4.80;;
14903;SDS011;7543;53.148;8.234;2023-01-24T05:04:31;8.87;;;4.37;;
14903;SDS011;7543;53.148;8.234;2023-01-24T05:07:01;7.90;;;4.60;;
14903;SDS011;7543;53.148;8.234;2023-01-24T05:09:31;7.20;;;4.13;;
14903;SDS011;7543;53.148;8.234;2023-01-24T05:12:04;6.33;;;3.90;;
14903;SDS011;7543;53.148;8.234;2023-01-24T05:14:32;7.97;;;4.40;;
14903;SDS011;7543;53.148;8.234;2023-01-24T05:17:00;7.67;;;4.47;;
14903;SDS011;7543;53.148;8.234;2023-01-24T05:19:29;7.73;;;4.43;;
14903;SDS011;7543;53.148;8.234;2023-01-24T05:21:57;7.60;;;4.50;;
14903;SDS011;7543;53.148;8.234;2023-01-24T05:24:27;6.83;;;4.43;;
14903;SDS011;7543;53.148;8.234;2023-01-24T05:26:55;6.73;;;4.03;;
14903;SDS011;7543;53.148;8.234;2023-01-24T05:29:27;10.53;;;5.57;;
14903;SDS011;7543;53.148;8.234;2023-01-24T05:31:56;9.40;;;5.30;;
14903;SDS011;7543;53.148;8.234;2023-01-24T05:34:25;8.83;;;5.03;;
14903;SDS011;7543;53.148;8.234;2023-01-24T05:36:53;9.50;;;5.40;;
14903;SDS011;7543;53.148;8.234;2023-01-24T05:39:23;10.20;;;5.70;;
14903;SDS011;7543;53.148;8.234;2023-01-24T05:41:52;10.70;;;5.20;;
14903;SDS011;7543;53.148;8.234;2023-01-24T05:44:23;9.67;;;5.13;;
14903;SDS011;7543;53.148;8.234;2023-01-24T05:46:52;11.27;;;6.30;;
14903;SDS011;7543;53.148;8.234;2023-01-24T05:49:23;13.60;;;6.17;;
14903;SDS011;7543;53.148;8.234;2023-01-24T05:51:52;10.53;;;5.83;;
14903;SDS011;7543;53.148;8.234;2023-01-24T05:54:35;10.23;;;6.07;;
14903;SDS011;7543;53.148;8.234;2023-01-24T05:57:08;12.50;;;6.80;;
14903;SDS011;7543;53.148;8.234;2023-01-24T05:59:56;13.50;;;7.17;;
14903;SDS011;7543;53.148;8.234;2023-01-24T06:02:26;14.47;;;7.00;;
14903;SDS011;7543;53.148;8.234;2023-01-24T06:04:55;12.13;;;7.10;;
14903;SDS011;7543;53.148;8.234;2023-01-24T06:07:23;9.47;;;5.27;;
14903;SDS011;7543;53.148;8.234;2023-01-24T06:09:51;9.67;;;5.43;;
14903;SDS011;7543;53.148;8.234;2023-01-24T06:12:21;13.33;;;6.93;;
14903;SDS011;7543;53.148;8.234;2023-01-24T06:14:50;10.87;;;6.30;;
14903;SDS011;7543;53.148;8.234;2023-01-24T06:17:18;10.63;;;6.47;;
14903;SDS011;7543;53.148;8.234;2023-01-24T06:19:47;12.73;;;6.60;;
14903;SDS011;7543;53.148;8.234;2023-01-24T06:22:17;14.63;;;7.53;;
14903;SDS011;7543;53.148;8.234;2023-01-24T06:24:50;12.07;;;6.80;;
14903;SDS011;7543;53.148;8.234;2023-01-24T06:27:29;11.33;;;6.07;;
14903;SDS011;7543;53.148;8.234;2023-01-24T06:29:58;14.27;;;6.90;;
14903;SDS011;7543;53.148;8.234;2023-01-24T06:32:28;11.87;;;6.33;;
14903;SDS011;7543;53.148;8.234;2023-01-24T06:35:07;11.30;;;6.33;;
14903;SDS011;7543;53.148;8.234;2023-01-24T06:37:42;14.43;;;7.10;;
14903;SDS011;7543;53.148;8.234;2023-01-24T06:40:14;15.00;;;6.70;;
14903;SDS011;7543;53.148;8.234;2023-01-24T06:42:45;10.93;;;5.97;;
14903;SDS011;7543;53.148;8.234;2023-01-24T06:45:13;10.57;;;5.93;;
14903;SDS011;7543;53.148;8.234;2023-01-24T06:47:42;11.53;;;5.57;;
14903;SDS011;7543;53.148;8.234;2023-01-24T06:50:12;12.43;;;6.27;;
14903;SDS011;7543;53.148;8.234;2023-01-24T06:52:43;15.03;;;7.40;;
14903;SDS011;7543;53.148;8.234;2023-01-24T06:55:12;11.03;;;6.27;;
14903;SDS011;7543;53.148;8.234;2023-01-24T06:57:40;10.17;;;5.43;;
14903;SDS011;7543;53.148;8.234;2023-01-24T07:00:11;11.53;;;6.10;;
14903;SDS011;7543;53.148;8.234;2023-01-24T07:02:39;13.33;;;6.97;;
14903;SDS011;7543;53.148;8.234;2023-01-24T07:05:08;11.97;;;5.80;;
14903;SDS011;7543;53.148;8.234;2023-01-24T07:07:36;10.53;;;5.53;;
14903;SDS011;7543;53.148;8.234;2023-01-24T07:10:06;10.60;;;5.57;;
14903;SDS011;7543;53.148;8.234;2023-01-24T07:12:35;11.00;;;5.37;;
14903;SDS011;7543;53.148;8.234;2023-01-24T07:15:03;12.37;;;6.37;;
14903;SDS011;7543;53.148;8.234;2023-01-24T07:17:34;11.80;;;5.90;;
14903;SDS011;7543;53.148;8.234;2023-01-24T07:20:03;12.00;;;6.23;;
14903;SDS011;7543;53.148;8.234;2023-01-24T07:22:32;13.27;;;6.70;;
14903;SDS011;7543;53.148;8.234;2023-01-24T07:25:00;12.87;;;6.47;;
14903;SDS011;7543;53.148;8.234;2023-01-24T07:27:29;14.70;;;7.10;;
14903;SDS011;7543;53.148;8.234;2023-01-24T07:29:58;12.60;;;6.60;;
14903;SDS011;7543;53.148;8.234;2023-01-24T07:32:26;13.27;;;7.10;;
14903;SDS011;7543;53.148;8.234;2023-01-24T07:34:56;10.80;;;6.20;;
14903;SDS011;7543;53.148;8.234;2023-01-24T07:37:24;13.87;;;6.70;;
14903;SDS011;7543;53.148;8.234;2023-01-24T07:39:52;13.80;;;7.27;;
14903;SDS011;7543;53.148;8.234;2023-01-24T07:42:20;12.03;;;6.63;;
14903;SDS011;7543;53.148;8.234;2023-01-24T07:44:49;14.93;;;6.97;;
14903;SDS011;7543;53.148;8.234;2023-01-24T07:47:17;9.87;;;6.20;;
14903;SDS011;7543;53.148;8.234;2023-01-24T07:49:45;11.87;;;7.00;;
14903;SDS011;7543;53.148;8.234;2023-01-24T07:52:15;13.67;;;7.07;;
14903;SDS011;7543;53.148;8.234;2023-01-24T07:54:43;14.83;;;6.70;;
14903;SDS011;7543;53.148;8.234;2023-01-24T07:57:11;13.53;;;7.67;;
14903;SDS011;7543;53.148;8.234;2023-01-24T07:59:40;13.13;;;7.00;;
14903;SDS011;7543;53.148;8.234;2023-01-24T08:02:08;14.47;;;7.23;;
14903;SDS011;7543;53.148;8.234;2023-01-24T08:04:37;11.97;;;6.03;;
14903;SDS011;7543;53.148;8.234;2023-01-24T08:07:06;13.20;;;6.83;;
14903;SDS011;7543;53.148;8.234;2023-01-24T08:09:48;13.30;;;6.83;;
14903;SDS011;7543;53.148;8.234;2023-01-24T08:12:16;11.50;;;6.80;;
14903;SDS011;7543;53.148;8.234;2023-01-24T08:14:44;15.57;;;7.17;;
14903;SDS011;7543;53.148;8.234;2023-01-24T08:17:13;12.97;;;7.30;;
14903;SDS011;7543;53.148;8.234;2023-01-24T08:19:41;14.90;;;7.57;;
14903;SDS011;7543;53.148;8.234;2023-01-24T08:22:10;12.23;;;6.47;;
14903;SDS011;7543;53.148;8.234;2023-01-24T08:24:38;14.83;;;7.30;;
14903;SDS011;7543;53.148;8.234;2023-01-24T08:27:08;12.33;;;6.77;;
14903;SDS011;7543;53.148;8.234;2023-01-24T08:29:36;14.33;;;7.20;;
14903;SDS011;7543;53.148;8.234;2023-01-24T08:32:04;11.77;;;6.60;;
14903;SDS011;7543;53.148;8.234;2023-01-24T08:34:33;11.23;;;6.53;;
14903;SDS011;7543;53.148;8.234;2023-01-24T08:37:01;13.83;;;7.60;;
14903;SDS011;7543;53.148;8.234;2023-01-24T08:39:29;12.10;;;6.20;;
14903;SDS011;7543;53.148;8.234;2023-01-24T08:41:57;12.03;;;6.67;;
14903;SDS011;7543;53.148;8.234;2023-01-24T08:44:27;12.13;;;6.70;;
14903;SDS011;7543;53.148;8.234;2023-01-24T08:46:55;13.33;;;6.37;;
14903;SDS011;7543;53.148;8.234;2023-01-24T08:49:23;11.03;;;6.47;;
14903;SDS011;7543;53.148;8.234;2023-01-24T08:51:51;11.80;;;6.30;;
14903;SDS011;7543;53.148;8.234;2023-01-24T08:54:25;15.57;;;7.50;;
14903;SDS011;7543;53.148;8.234;2023-01-24T08:56:53;13.07;;;6.57;;
14903;SDS011;7543;53.148;8.234;2023-01-24T08:59:22;15.50;;;6.67;;
14903;SDS011;7543;53.148;8.234;2023-01-24T09:01:52;11.03;;;6.07;;
14903;SDS011;7543;53.148;8.234;2023-01-24T09:04:20;10.47;;;6.20;;
14903;SDS011;7543;53.148;8.234;2023-01-24T09:06:50;10.87;;;6.20;;
14903;SDS011;7543;53.148;8.234;2023-01-24T09:09:19;10.67;;;5.53;;
14903;SDS011;7543;53.148;8.234;2023-01-24T09:11:47;12.27;;;6.40;;
14903;SDS011;7543;53.148;8.234;2023-01-24T09:14:15;10.83;;;6.37;;
14903;SDS011;7543;53.148;8.234;2023-01-24T09:16:43;14.93;;;7.10;;
14903;SDS011;7543;53.148;8.234;2023-01-24T09:19:13;14.10;;;7.00;;
14903;SDS011;7543;53.148;8.234;2023-01-24T09:21:41;13.10;;;7.40;;
14903;SDS011;7543;53.148;8.234;2023-01-24T09:24:10;14.60;;;6.50;;
14903;SDS011;7543;53.148;8.234;2023-01-24T09:26:38;12.93;;;7.40;;
14903;SDS011;7543;53.148;8.234;2023-01-24T09:29:08;12.20;;;7.00;;
14903;SDS011;7543;53.148;8.234;2023-01-24T09:31:36;13.40;;;7.00;;
14903;SDS011;7543;53.148;8.234;2023-01-24T09:34:04;17.33;;;7.23;;
14903;SDS011;7543;53.148;8.234;2023-01-24T09:36:34;16.97;;;7.10;;
14903;SDS011;7543;53.148;8.234;2023-01-24T09:39:02;15.80;;;7.10;;
14903;SDS011;7543;53.148;8.234;2023-01-24T09:41:35;13.67;;;6.80;;
14903;SDS011;7543;53.148;8.234;2023-01-24T09:44:10;12.93;;;6.97;;
14903;SDS011;7543;53.148;8.234;2023-01-24T09:46:44;12.10;;;6.73;;
14903;SDS011;7543;53.148;8.234;2023-01-24T09:49:16;13.87;;;7.70;;
14903;SDS011;7543;53.148;8.234;2023-01-24T09:51:50;12.80;;;7.27;;
14903;SDS011;7543;53.148;8.234;2023-01-24T09:54:21;11.00;;;6.80;;
14903;SDS011;7543;53.148;8.234;2023-01-24T09:56:57;17.37;;;8.20;;
14903;SDS011;7543;53.148;8.234;2023-01-24T09:59:28;18.13;;;9.53;;
14903;SDS011;7543;53.148;8.234;2023-01-24T10:02:01;15.83;;;9.20;;
14903;SDS011;7543;53.148;8.234;2023-01-24T10:04:30;16.07;;;9.10;;
14903;SDS011;7543;53.148;8.234;2023-01-24T10:07:14;16.73;;;9.37;;
14903;SDS011;7543;53.148;8.234;2023-01-24T10:09:51;16.23;;;8.23;;
14903;SDS011;7543;53.148;8.234;2023-01-24T10:12:31;16.17;;;7.83;;
14903;SDS011;7543;53.148;8.234;2023-01-24T10:15:09;12.90;;;7.10;;
14903;SDS011;7543;53.148;8.234;2023-01-24T10:17:50;14.90;;;8.03;;
14903;SDS011;7543;53.148;8.234;2023-01-24T10:20:43;17.47;;;8.83;;
14903;SDS011;7543;53.148;8.234;2023-01-24T10:23:17;14.80;;;8.13;;
14903;SDS011;7543;53.148;8.234;2023-01-24T10:25:50;15.13;;;8.07;;
14903;SDS011;7543;53.148;8.234;2023-01-24T10:28:22;17.83;;;8.20;;
14903;SDS011;7543;53.148;8.234;2023-01-24T10:30:53;12.93;;;7.70;;
14903;SDS011;7543;53.148;8.234;2023-01-24T10:33:30;18.00;;;8.07;;
14903;SDS011;7543;53.148;8.234;2023-01-24T10:36:02;15.57;;;7.63;;
14903;SDS011;7543;53.148;8.234;2023-01-24T10:38:35;15.90;;;7.50;;
14903;SDS011;7543;53.148;8.234;2023-01-24T10:41:13;13.10;;;7.20;;
14903;SDS011;7543;53.148;8.234;2023-01-24T10:43:43;15.13;;;7.93;;
14903;SDS011;7543;53.148;8.234;2023-01-24T10:46:16;14.67;;;7.70;;
14903;SDS011;7543;53.148;8.234;2023-01-24T10:48:54;13.77;;;7.83;;
14903;SDS011;7543;53.148;8.234;2023-01-24T10:51:23;15.73;;;7.70;;
14903;SDS011;7543;53.148;8.234;2023-01-24T10:53:54;13.50;;;7.10;;
14903;SDS011;7543;53.148;8.234;2023-01-24T10:56:23;14.97;;;8.00;;
14903;SDS011;7543;53.148;8.234;2023-01-24T10:58:55;16.80;;;7.97;;
14903;SDS011;7543;53.148;8.234;2023-01-24T11:01:31;11.30;;;6.57;;
14903;SDS011;7543;53.148;8.234;2023-01-24T11:04:11;11.70;;;6.23;;
14903;SDS011;7543;53.148;8.234;2023-01-24T11:06:42;14.27;;;7.93;;
14903;SDS011;7543;53.148;8.234;2023-01-24T11:09:15;12.07;;;7.23;;
14903;SDS011;7543;53.148;8.234;2023-01-24T11:11:47;14.87;;;7.50;;
14903;SDS011;7543;53.148;8.234;2023-01-24T11:14:18;12.50;;;6.83;;
14903;SDS011;7543;53.148;8.234;2023-01-24T11:16:49;13.27;;;6.80;;
14903;SDS011;7543;53.148;8.234;2023-01-24T11:19:21;10.93;;;6.23;;
14903;SDS011;7543;53.148;8.234;2023-01-24T11:21:53;14.47;;;6.63;;
14903;SDS011;7543;53.148;8.234;2023-01-24T11:24:24;10.83;;;6.30;;
14903;SDS011;7543;53.148;8.234;2023-01-24T11:26:53;12.93;;;6.97;;
14903;SDS011;7543;53.148;8.234;2023-01-24T11:29:24;12.53;;;6.70;;
14903;SDS011;7543;53.148;8.234;2023-01-24T11:31:52;12.20;;;6.53;;
14903;SDS011;7543;53.148;8.234;2023-01-24T11:34:24;9.73;;;6.20;;
14903;SDS011;7543;53.148;8.234;2023-01-24T11:37:06;11.70;;;6.00;;
14903;SDS011;7543;53.148;8.234;2023-01-24T11:39:56;11.30;;;5.60;;
14903;SDS011;7543;53.148;8.234;2023-01-24T11:42:31;16.47;;;7.43;;
14903;SDS011;7543;53.148;8.234;2023-01-24T11:48:02;13.30;;;6.67;;
14903;SDS011;7543;53.148;8.234;2023-01-24T11:50:41;9.97;;;5.50;;
14903;SDS011;7543;53.148;8.234;2023-01-24T11:53:17;13.03;;;6.30;;
14903;SDS011;7543;53.148;8.234;2023-01-24T11:56:05;12.97;;;6.00;;
14903;SDS011;7543;53.148;8.234;2023-01-24T11:58:52;10.37;;;6.37;;
14903;SDS011;7543;53.148;8.234;2023-01-24T12:01:30;13.43;;;6.87;;
14903;SDS011;7543;53.148;8.234;2023-01-24T12:06:52;12.33;;;6.23;;
14903;SDS011;7543;53.148;8.234;2023-01-24T12:09:25;12.67;;;6.53;;
14903;SDS011;7543;53.148;8.234;2023-01-24T12:11:57;10.30;;;5.87;;
14903;SDS011;7543;53.148;8.234;2023-01-24T12:14:53;14.80;;;6.27;;
14903;SDS011;7543;53.148;8.234;2023-01-24T12:17:36;10.23;;;5.50;;
14903;SDS011;7543;53.148;8.234;2023-01-24T12:20:13;10.00;;;5.63;;
14903;SDS011;7543;53.148;8.234;2023-01-24T12:22:50;10.70;;;5.57;;
14903;SDS011;7543;53.148;8.234;2023-01-24T12:25:22;9.33;;;5.77;;
14903;SDS011;7543;53.148;8.234;2023-01-24T12:27:55;11.57;;;6.37;;
14903;SDS011;7543;53.148;8.234;2023-01-24T12:30:29;10.90;;;6.10;;
14903;SDS011;7543;53.148;8.234;2023-01-24T12:33:01;12.23;;;5.30;;
14903;SDS011;7543;53.148;8.234;2023-01-24T12:35:34;10.97;;;5.27;;
14903;SDS011;7543;53.148;8.234;2023-01-24T12:47:31;12.27;;;6.10;;
14903;SDS011;7543;53.148;8.234;2023-01-24T12:50:09;11.97;;;6.60;;
14903;SDS011;7543;53.148;8.234;2023-01-24T12:52:45;14.77;;;5.77;;
14903;SDS011;7543;53.148;8.234;2023-01-24T12:55:16;8.30;;;4.60;;
14903;SDS011;7543;53.148;8.234;2023-01-24T12:57:48;10.80;;;5.60;;
14903;SDS011;7543;53.148;8.234;2023-01-24T13:00:19;10.90;;;5.63;;
14903;SDS011;7543;53.148;8.234;2023-01-24T13:03:01;9.17;;;4.93;;
14903;SDS011;7543;53.148;8.234;2023-01-24T13:05:45;10.17;;;5.43;;
14903;SDS011;7543;53.148;8.234;2023-01-24T13:08:22;9.63;;;5.43;;
14903;SDS011;7543;53.148;8.234;2023-01-24T13:10:59;9.67;;;5.20;;
14903;SDS011;7543;53.148;8.234;2023-01-24T13:13:38;7.10;;;4.27;;
14903;SDS011;7543;53.148;8.234;2023-01-24T13:16:18;9.50;;;4.93;;
14903;SDS011;7543;53.148;8.234;2023-01-24T13:19:00;9.00;;;4.93;;
14903;SDS011;7543;53.148;8.234;2023-01-24T13:21:34;11.53;;;5.37;;
14903;SDS011;7543;53.148;8.234;2023-01-24T13:24:12;8.50;;;5.23;;
14903;SDS011;7543;53.148;8.234;2023-01-24T13:26:51;10.77;;;5.13;;
14903;SDS011;7543;53.148;8.234;2023-01-24T13:29:29;10.37;;;5.80;;
14903;SDS011;7543;53.148;8.234;2023-01-24T13:32:04;8.40;;;4.83;;
14903;SDS011;7543;53.148;8.234;2023-01-24T13:34:36;9.87;;;5.57;;
14903;SDS011;7543;53.148;8.234;2023-01-24T13:37:14;10.03;;;5.17;;
14903;SDS011;7543;53.148;8.234;2023-01-24T13:39:45;11.57;;;5.50;;
14903;SDS011;7543;53.148;8.234;2023-01-24T13:42:21;9.60;;;5.47;;
14903;SDS011;7543;53.148;8.234;2023-01-24T13:44:50;12.07;;;5.57;;
14903;SDS011;7543;53.148;8.234;2023-01-24T13:47:21;9.00;;;4.73;;
14903;SDS011;7543;53.148;8.234;2023-01-24T13:50:12;12.33;;;5.30;;
14903;SDS011;7543;53.148;8.234;2023-01-24T13:52:48;11.43;;;5.33;;
14903;SDS011;7543;53.148;8.234;2023-01-24T13:58:26;11.97;;;5.63;;
14903;SDS011;7543;53.148;8.234;2023-01-24T14:00:57;11.33;;;5.60;;
14903;SDS011;7543;53.148;8.234;2023-01-24T14:03:27;11.27;;;5.70;;
14903;SDS011;7543;53.148;8.234;2023-01-24T14:06:09;14.73;;;4.93;;
14903;SDS011;7543;53.148;8.234;2023-01-24T14:08:46;11.10;;;4.80;;
14903;SDS011;7543;53.148;8.234;2023-01-24T14:11:17;11.43;;;5.87;;
14903;SDS011;7543;53.148;8.234;2023-01-24T14:13:54;9.83;;;5.63;;
14903;SDS011;7543;53.148;8.234;2023-01-24T14:19:28;10.03;;;5.53;;
14903;SDS011;7543;53.148;8.234;2023-01-24T14:22:01;10.93;;;5.50;;
14903;SDS011;7543;53.148;8.234;2023-01-24T14:24:35;10.47;;;5.47;;
14903;SDS011;7543;53.148;8.234;2023-01-24T14:27:13;8.67;;;5.20;;
14903;SDS011;7543;53.148;8.234;2023-01-24T14:29:46;8.63;;;4.60;;
14903;SDS011;7543;53.148;8.234;2023-01-24T14:32:17;12.50;;;5.23;;
14903;SDS011;7543;53.148;8.234;2023-01-24T14:34:50;9.40;;;5.10;;
14903;SDS011;7543;53.148;8.234;2023-01-24T14:37:26;11.00;;;5.73;;
14903;SDS011;7543;53.148;8.234;2023-01-24T14:40:08;9.03;;;4.97;;
14903;SDS011;7543;53.148;8.234;2023-01-24T14:42:38;10.90;;;4.20;;
14903;SDS011;7543;53.148;8.234;2023-01-24T14:45:08;8.57;;;4.77;;
14903;SDS011;7543;53.148;8.234;2023-01-24T14:47:40;10.80;;;5.10;;
14903;SDS011;7543;53.148;8.234;2023-01-24T14:50:20;10.00;;;5.13;;
14903;SDS011;7543;53.148;8.234;2023-01-24T14:52:51;9.27;;;4.80;;
14903;SDS011;7543;53.148;8.234;2023-01-24T14:55:29;10.27;;;4.73;;
14903;SDS011;7543;53.148;8.234;2023-01-24T14:58:18;9.87;;;5.57;;
14903;SDS011;7543;53.148;8.234;2023-01-24T15:00:49;8.47;;;5.13;;
14903;SDS011;7543;53.148;8.234;2023-01-24T15:03:19;11.00;;;5.87;;
14903;SDS011;7543;53.148;8.234;2023-01-24T15:05:51;10.57;;;5.73;;
14903;SDS011;7543;53.148;8.234;2023-01-24T15:08:25;12.57;;;5.53;;
14903;SDS011;7543;53.148;8.234;2023-01-24T15:10:55;10.77;;;5.27;;
14903;SDS011;7543;53.148;8.234;2023-01-24T15:15:57;9.97;;;5.13;;
14903;SDS011;7543;53.148;8.234;2023-01-24T15:18:30;13.30;;;5.40;;
14903;SDS011;7543;53.148;8.234;2023-01-24T15:21:14;10.27;;;5.70;;
14903;SDS011;7543;53.148;8.234;2023-01-24T15:23:49;10.00;;;5.03;;
14903;SDS011;7543;53.148;8.234;2023-01-24T15:32:26;12.80;;;5.40;;
14903;SDS011;7543;53.148;8.234;2023-01-24T15:38:10;9.47;;;4.83;;
14903;SDS011;7543;53.148;8.234;2023-01-24T15:41:01;10.97;;;4.80;;
14903;SDS011;7543;53.148;8.234;2023-01-24T15:43:41;10.27;;;4.37;;
14903;SDS011;7543;53.148;8.234;2023-01-24T15:46:19;10.03;;;5.17;;
14903;SDS011;7543;53.148;8.234;2023-01-24T15:49:20;10.10;;;4.67;;
14903;SDS011;7543;53.148;8.234;2023-01-24T15:52:00;9.83;;;4.97;;
14903;SDS011;7543;53.148;8.234;2023-01-24T15:54:40;8.93;;;5.03;;
14903;SDS011;7543;53.148;8.234;2023-01-24T15:57:15;9.27;;;4.80;;
14903;SDS011;7543;53.148;8.234;2023-01-24T15:59:47;8.80;;;4.80;;